Time;durP1;ratioP1;P1;durP2;ratioP2;P2;SDS_P1;SDS_P2;PMS_P1;PMS_P2;Temp;Humidity;BMP_temperature;BMP_pressure;BME280_temperature;BME280_humidity;BME280_pressure;Samples;Min_cycle;Max_cycle;Signal;HPM_P1;HPM_P2
2022/02/04 00:06:25;;;;;;;8.05;4.28;;;;;;;2.79;54.38;100254.38;5047596;28;20103;-37
2022/02/04 00:24:30;;;;;;;7.38;4.63;;;;;;;2.58;54.55;100272.94;5049955;28;20048;-38
2022/02/04 00:27:03;;;;;;;5.80;3.95;;;;;;;2.54;55.24;100261.03;5050645;28;20401;-37
2022/02/04 00:29:36;;;;;;;7.15;3.90;;;;;;;2.33;55.22;100263.81;5050472;28;20099;-37
2022/02/04 00:32:06;;;;;;;6.38;4.05;;;;;;;2.57;54.79;100270.44;5054744;28;20230;-37
2022/02/04 00:34:39;;;;;;;5.97;4.20;;;;;;;2.81;54.82;100268.22;5054294;28;20033;-37
2022/02/04 00:37:19;;;;;;;6.00;4.00;;;;;;;2.16;55.51;100265.31;5054003;28;20033;-37
2022/02/04 00:39:53;;;;;;;8.23;3.90;;;;;;;2.38;54.52;100264.22;5054060;28;20029;-37
2022/02/04 00:42:18;;;;;;;6.45;4.07;;;;;;;2.26;55.20;100262.69;5053758;28;20033;-37
2022/02/04 00:44:44;;;;;;;7.10;4.10;;;;;;;2.32;54.66;100262.97;5054200;28;20079;-38
2022/02/04 00:47:20;;;;;;;6.88;3.95;;;;;;;2.41;54.44;100256.06;5054139;28;20037;-37
2022/02/04 00:52:34;;;;;;;9.43;4.15;;;;;;;2.42;54.09;100263.00;5054333;28;20115;-37
2022/02/04 00:55:20;;;;;;;7.60;3.88;;;;;;;2.19;54.44;100251.91;5054111;28;20086;-37
2022/02/04 01:27:21;;;;;;;6.38;4.10;;;;;;;2.52;54.31;100237.53;5053526;28;20457;-37
2022/02/04 01:30:05;;;;;;;6.05;3.78;;;;;;;2.31;54.04;100244.72;5053210;28;20032;-38
2022/02/04 01:32:31;;;;;;;5.65;3.78;;;;;;;2.39;53.90;100241.41;5053184;28;20420;-37
2022/02/04 01:34:56;;;;;;;6.45;4.07;;;;;;;2.29;54.63;100238.78;5053177;28;20028;-37
2022/02/04 01:37:22;;;;;;;9.68;4.00;;;;;;;2.11;55.03;100228.97;5053315;28;20029;-37
2022/02/04 01:39:47;;;;;;;6.43;3.90;;;;;;;2.41;54.09;100228.97;5053050;28;20029;-36
2022/02/04 01:42:13;;;;;;;6.78;3.70;;;;;;;2.13;54.47;100227.03;5052021;28;20025;-37
2022/02/04 01:44:39;;;;;;;6.85;3.90;;;;;;;2.14;54.71;100230.47;5052246;28;20451;-37
2022/02/04 01:47:04;;;;;;;6.88;3.85;;;;;;;2.25;54.80;100237.41;5052061;28;20033;-37
2022/02/04 01:49:30;;;;;;;9.10;3.80;;;;;;;2.32;54.00;100233.25;5052074;28;20025;-37
2022/02/04 01:51:55;;;;;;;5.75;3.75;;;;;;;2.30;54.70;100228.16;5052285;28;20063;-37
2022/02/04 01:54:22;;;;;;;7.78;4.00;;;;;;;2.02;54.28;100227.16;5052313;28;20031;-37
2022/02/04 01:56:47;;;;;;;4.97;3.35;;;;;;;1.80;55.20;100230.84;5052157;28;20037;-37
2022/02/04 01:59:13;;;;;;;5.80;3.70;;;;;;;2.14;53.69;100235.72;5052305;28;20447;-37
2022/02/04 02:01:38;;;;;;;6.50;3.45;;;;;;;1.92;54.17;100239.41;5052808;28;20065;-37
2022/02/04 02:04:06;;;;;;;6.82;3.78;;;;;;;2.00;54.49;100241.38;5051493;28;20108;-38
2022/02/04 02:06:41;;;;;;;5.47;3.30;;;;;;;2.05;54.93;100242.63;5052664;28;20480;-38
2022/02/04 02:09:07;;;;;;;6.97;3.75;;;;;;;2.11;54.29;100234.22;5052741;28;20044;-38
2022/02/04 02:11:32;;;;;;;6.25;3.78;;;;;;;2.02;54.26;100239.44;5052421;28;20049;-38
2022/02/04 02:13:58;;;;;;;8.55;4.38;;;;;;;1.91;54.23;100246.47;5052554;28;20032;-38
2022/02/04 02:56:05;;;;;;;6.82;3.17;;;;;;;1.90;53.70;100267.59;5051500;28;20025;-37
2022/02/04 02:58:34;;;;;;;5.03;2.90;;;;;;;1.98;53.28;100266.94;5051190;28;20056;-37
2022/02/04 03:03:28;;;;;;;6.30;3.35;;;;;;;2.11;51.99;100265.72;5051134;28;20025;-37
2022/02/04 03:05:54;;;;;;;6.43;3.30;;;;;;;1.99;52.11;100264.16;5051359;28;20113;-37
2022/02/04 03:08:21;;;;;;;4.80;2.88;;;;;;;2.05;52.15;100268.06;5051361;28;20040;-37
2022/02/04 03:10:53;;;;;;;5.07;3.08;;;;;;;1.80;53.46;100256.25;5051181;28;20064;-37
2022/02/04 03:13:20;;;;;;;5.75;3.00;;;;;;;1.81;53.17;100263.16;5051290;28;20059;-37
2022/02/04 03:15:45;;;;;;;4.32;3.10;;;;;;;1.95;53.31;100254.91;5051389;28;20094;-37
2022/02/04 03:18:21;;;;;;;5.82;3.03;;;;;;;1.56;53.51;100265.28;5051224;28;20457;-37
2022/02/04 03:20:49;;;;;;;4.90;3.10;;;;;;;1.48;53.74;100260.69;5051431;28;20025;-37
2022/02/04 03:23:16;;;;;;;5.20;3.40;;;;;;;1.65;53.59;100258.41;5051085;28;20428;-37
2022/02/04 03:25:46;;;;;;;5.18;3.40;;;;;;;1.84;52.62;100249.78;5051067;28;20100;-37
2022/02/04 03:28:17;;;;;;;5.45;3.25;;;;;;;1.49;53.27;100244.00;5051210;28;20021;-37
2022/02/04 03:30:44;;;;;;;7.05;3.08;;;;;;;1.56;52.69;100244.28;5049665;28;20021;-37
2022/02/04 03:33:10;;;;;;;5.57;2.92;;;;;;;1.47;53.68;100252.97;5050996;28;20067;-37
2022/02/04 03:35:36;;;;;;;5.05;2.80;;;;;;;1.46;53.30;100256.56;5051107;28;20025;-37
2022/02/04 03:38:02;;;;;;;5.65;3.20;;;;;;;1.66;53.35;100260.09;5051046;28;20027;-37
2022/02/04 03:40:27;;;;;;;5.43;3.35;;;;;;;1.52;53.90;100262.13;5050900;28;20057;-37
2022/02/04 03:42:53;;;;;;;5.82;3.10;;;;;;;1.31;54.04;100256.06;5050914;28;20381;-37
2022/02/04 03:45:19;;;;;;;6.63;3.28;;;;;;;1.44;54.36;100261.94;5051115;28;20017;-37
2022/02/04 03:47:45;;;;;;;5.35;3.13;;;;;;;1.28;54.98;100258.97;5050882;28;20040;-37
2022/02/04 03:50:10;;;;;;;5.43;3.28;;;;;;;1.29;54.55;100256.19;5050678;28;20025;-37
2022/02/04 03:52:37;;;;;;;5.95;3.20;;;;;;;1.42;53.96;100263.03;5050973;28;20021;-38
2022/02/04 03:55:03;;;;;;;4.45;3.03;;;;;;;1.45;54.07;100254.91;5050555;28;20476;-37
2022/02/04 03:57:29;;;;;;;3.97;2.80;;;;;;;1.44;54.55;100258.47;5050735;28;20028;-37
2022/02/04 03:59:54;;;;;;;5.20;3.20;;;;;;;1.39;54.52;100252.78;5050640;28;20071;-38
2022/02/04 04:02:19;;;;;;;5.70;3.50;;;;;;;1.62;53.45;100261.28;5050900;28;20021;-37
2022/02/04 04:04:45;;;;;;;4.82;3.10;;;;;;;1.25;55.02;100261.84;5050551;28;20017;-37
2022/02/04 04:07:10;;;;;;;5.47;3.03;;;;;;;1.20;54.70;100250.91;5050435;28;20032;-37
2022/02/04 04:09:41;;;;;;;4.45;2.95;;;;;;;1.21;54.56;100249.97;5050545;28;20037;-37
2022/02/04 04:12:07;;;;;;;7.30;3.13;;;;;;;1.11;54.91;100249.91;5050371;28;20064;-37
2022/02/04 04:14:33;;;;;;;4.40;2.78;;;;;;;1.39;54.42;100244.91;5050527;28;20100;-37
2022/02/04 04:16:58;;;;;;;5.88;3.08;;;;;;;1.48;52.67;100247.59;5050588;28;20033;-37
2022/02/04 04:19:24;;;;;;;3.83;2.80;;;;;;;1.60;53.19;100245.72;5050460;28;20037;-37
2022/02/04 04:21:50;;;;;;;4.38;2.83;;;;;;;1.72;53.05;100241.19;5050548;28;20049;-37
2022/02/04 04:24:16;;;;;;;5.25;3.03;;;;;;;1.79;52.27;100244.09;5050401;28;20047;-37
2022/02/04 04:26:42;;;;;;;4.68;2.70;;;;;;;1.76;52.95;100242.56;5050698;28;20100;-37
2022/02/04 04:29:08;;;;;;;6.32;3.00;;;;;;;1.58;53.34;100236.28;5050691;28;20029;-37
2022/02/04 04:31:33;;;;;;;4.78;3.20;;;;;;;1.73;52.55;100240.19;5050830;28;20029;-37
2022/02/04 04:33:59;;;;;;;5.82;3.40;;;;;;;1.87;53.67;100244.25;5050515;28;20032;-37
2022/02/04 04:36:24;;;;;;;7.03;4.13;;;;;;;1.62;53.03;100241.16;5050729;28;20028;-37
2022/02/04 04:41:35;;;;;;;7.05;3.75;;;;;;;1.92;53.80;100255.16;5050414;28;20382;-37
2022/02/04 05:25:56;;;;;;;9.23;4.18;;;;;;;1.89;53.19;100253.66;5050475;28;20083;-37
2022/02/04 05:28:13;;;;;;;7.35;3.30;;;;;;;1.44;53.16;100261.94;5052009;28;20106;-51
2022/02/04 05:30:39;;;;;;;8.23;3.33;;;;;;;1.62;54.17;100266.53;5052396;28;20020;-37
2022/02/04 05:33:04;;;;;;;5.78;3.05;;;;;;;1.67;53.36;100266.97;5051602;28;20029;-38
2022/02/04 05:35:30;;;;;;;5.70;3.20;;;;;;;1.60;52.05;100268.47;5032926;28;20017;-37
2022/02/04 05:37:55;;;;;;;7.65;3.42;;;;;;;1.79;51.63;100255.44;5051931;28;20029;-37
2022/02/04 05:40:24;;;;;;;5.55;2.90;;;;;;;1.62;51.42;100254.28;5052104;28;20021;-37
2022/02/04 05:43:02;;;;;;;6.63;3.00;;;;;;;2.00;51.00;100257.97;5052279;28;20033;-37
2022/02/04 05:45:32;;;;;;;6.78;3.00;;;;;;;2.13;51.07;100255.06;5052506;28;20256;-36
2022/02/04 05:48:02;;;;;;;9.38;3.20;;;;;;;2.51;49.16;100256.91;5052014;28;20079;-37
2022/02/04 05:50:52;;;;;;;7.60;3.20;;;;;;;2.64;49.74;100256.59;5052273;28;20063;-37
2022/02/04 05:53:23;;;;;;;14.40;3.40;;;;;;;3.11;47.30;100261.94;5051550;28;20094;-37
2022/02/04 05:58:40;;;;;;;5.53;3.10;;;;;;;3.61;46.02;100265.22;5050337;28;20021;-36
2022/02/04 06:11:48;;;;;;;15.73;7.18;;;;;;;4.42;44.07;100277.63;5051472;28;20049;-38
2022/02/04 06:22:20;;;;;;;6.43;3.10;;;;;;;5.03;42.93;100297.91;5049793;28;20039;-38
2022/02/04 06:24:49;;;;;;;6.22;3.40;;;;;;;5.23;42.97;100306.44;5050219;28;20440;-38
2022/02/04 06:27:16;;;;;;;6.80;3.30;;;;;;;5.21;43.28;100297.03;5049606;28;20037;-38
2022/02/04 06:29:41;;;;;;;5.05;3.20;;;;;;;6.09;52.16;100306.56;5051510;28;20024;-38
2022/02/04 06:32:07;;;;;;;4.85;3.00;;;;;;;6.83;53.95;100313.66;5050298;28;20032;-38
2022/02/04 06:34:33;;;;;;;9.95;3.60;;;;;;;7.90;44.99;100297.53;5050365;28;20388;-38
2022/02/04 06:36:58;;;;;;;8.68;4.65;;;;;;;8.26;49.11;100322.72;5049553;28;20487;-38
2022/02/04 06:39:23;;;;;;;10.75;6.05;;;;;;;7.59;38.69;100321.31;5051184;28;20029;-50
2022/02/04 06:41:49;;;;;;;10.85;5.00;;;;;;;6.74;39.81;100316.44;5050852;28;20132;-39
2022/02/04 06:44:14;;;;;;;8.05;4.20;;;;;;;6.16;43.53;100318.97;5051004;28;20037;-38
2022/02/04 06:46:40;;;;;;;6.50;4.10;;;;;;;5.96;43.82;100323.72;5050851;28;20029;-38
2022/02/04 06:49:05;;;;;;;8.35;4.32;;;;;;;5.48;44.29;100318.00;5050841;28;20025;-38
2022/02/04 06:51:31;;;;;;;8.20;4.40;;;;;;;5.21;45.75;100320.78;5050866;28;20098;-36
2022/02/04 06:53:56;;;;;;;41.55;19.23;;;;;;;5.60;43.49;100325.66;5048161;28;20029;-37
2022/02/04 06:56:22;;;;;;;37.22;20.60;;;;;;;5.74;43.41;100324.25;5050701;28;20039;-39
2022/02/04 06:58:47;;;;;;;8.90;5.28;;;;;;;5.38;44.06;100325.19;5050584;28;20059;-37
2022/02/04 07:01:13;;;;;;;9.02;4.07;;;;;;;5.33;44.24;100322.22;5050469;28;20013;-37
2022/02/04 07:03:38;;;;;;;10.45;4.35;;;;;;;5.70;42.98;100321.09;5050782;28;20047;-38
2022/02/04 07:06:05;;;;;;;7.75;4.32;;;;;;;5.60;43.19;100317.75;5050340;28;20017;-38
2022/02/04 07:16:38;;;;;;;7.57;4.13;;;;;;;6.63;41.66;100322.91;5050261;28;20021;-38
2022/02/04 07:21:48;;;;;;;8.18;4.28;;;;;;;6.49;41.06;100326.16;5048841;28;20059;-37
2022/02/04 07:24:13;;;;;;;9.15;4.90;;;;;;;6.74;40.71;100321.72;5050222;28;20025;-38
2022/02/04 07:26:39;;;;;;;7.00;4.53;;;;;;;6.33;40.69;100317.22;5050560;28;20029;-38
2022/02/04 07:29:05;;;;;;;9.38;5.10;;;;;;;6.61;40.58;100322.22;5050449;28;20036;-38
2022/02/04 07:31:34;;;;;;;7.22;4.65;;;;;;;7.05;39.81;100327.22;5050142;28;20029;-38
2022/02/04 07:34:34;;;;;;;10.40;4.57;;;;;;;7.11;39.55;100331.00;5050734;28;20104;-38
2022/02/04 07:42:27;;;;;;;9.23;5.30;;;;;;;7.08;39.98;100329.50;5050542;28;20040;-38
2022/02/04 07:44:53;;;;;;;10.40;5.40;;;;;;;7.42;39.33;100321.38;5050572;28;20029;-38
2022/02/04 07:47:18;;;;;;;9.18;5.15;;;;;;;7.70;38.73;100315.66;5050330;28;20036;-38
2022/02/04 07:49:44;;;;;;;9.10;5.65;;;;;;;7.53;39.19;100322.81;5050183;28;20017;-38
2022/02/04 07:52:09;;;;;;;9.50;5.28;;;;;;;7.68;39.42;100325.59;5050650;28;20024;-39
2022/02/04 07:54:35;;;;;;;9.70;5.90;;;;;;;7.66;39.11;100308.25;5050226;28;20029;-39
2022/02/04 07:57:00;;;;;;;9.13;5.00;;;;;;;7.05;40.13;100308.69;5049990;28;20032;-39
2022/02/04 07:59:25;;;;;;;11.18;5.15;;;;;;;7.59;39.55;100313.38;5049636;28;20473;-39
2022/02/04 08:01:51;;;;;;;10.25;5.45;;;;;;;7.61;39.48;100314.03;5050120;28;20032;-39
2022/02/04 08:04:22;;;;;;;11.32;5.63;;;;;;;7.64;39.79;100313.69;5050151;28;20452;-38
2022/02/04 08:06:55;;;;;;;8.68;5.32;;;;;;;8.07;39.08;100310.72;5050115;28;20507;-37
2022/02/04 08:09:39;;;;;;;12.68;6.35;;;;;;;7.91;39.19;100307.13;5049797;28;20100;-38
2022/02/04 08:12:31;;;;;;;8.35;5.47;;;;;;;7.70;39.86;100302.41;5049602;28;20136;-38
2022/02/04 08:15:30;;;;;;;17.05;5.90;;;;;;;8.37;38.82;100304.56;5048081;28;20090;-38
2022/02/04 08:26:13;;;;;;;11.07;4.95;;;;;;;8.69;37.51;100309.88;5049064;28;20052;-37
2022/02/04 08:29:01;;;;;;;7.35;4.55;;;;;;;9.30;36.82;100310.66;5049640;28;20037;-40
2022/02/04 08:54:34;;;;;;;7.00;4.25;;;;;;;8.74;37.15;100307.53;5053670;28;20028;-37
2022/02/04 09:02:06;;;;;;;6.55;4.13;;;;;;;8.45;38.25;100314.31;5053230;28;20032;-39
2022/02/04 09:04:36;;;;;;;8.48;5.13;;;;;;;8.90;37.57;100317.19;5052918;28;20028;-37
2022/02/04 09:07:06;;;;;;;5.75;4.00;;;;;;;8.46;37.67;100313.34;5052955;28;20338;-38
2022/02/04 09:09:48;;;;;;;8.90;4.05;;;;;;;8.73;37.61;100317.28;5052670;28;20031;-37
2022/02/04 09:20:30;;;;;;;7.43;4.55;;;;;;;8.83;36.99;100314.41;5052796;28;20044;-39
2022/02/04 09:22:55;;;;;;;7.35;4.50;;;;;;;8.85;37.63;100322.19;5052477;28;20033;-39
2022/02/04 09:25:21;;;;;;;9.77;4.60;;;;;;;8.46;38.48;100317.84;5052571;28;20025;-38
2022/02/04 09:27:46;;;;;;;7.85;4.53;;;;;;;8.99;37.66;100314.28;5052327;28;20486;-38
2022/02/04 09:30:15;;;;;;;7.20;4.32;;;;;;;8.97;37.78;100316.28;5052881;28;20028;-37
2022/02/04 09:32:40;;;;;;;7.30;4.57;;;;;;;9.06;37.06;100305.59;5052307;28;20056;-38
2022/02/04 09:35:10;;;;;;;7.35;4.40;;;;;;;9.88;36.08;100302.91;5052376;28;20100;-37
2022/02/04 09:37:36;;;;;;;8.23;4.97;;;;;;;9.93;36.14;100299.66;5052230;28;20091;-40
2022/02/04 09:40:05;;;;;;;8.82;4.85;;;;;;;9.57;36.74;100295.09;5052117;28;20029;-38
2022/02/04 09:42:31;;;;;;;10.70;4.70;;;;;;;9.60;36.99;100292.09;5052088;28;20021;-39
2022/02/04 09:44:56;;;;;;;7.20;4.93;;;;;;;9.54;36.41;100298.97;5052418;28;20058;-38
2022/02/04 09:47:24;;;;;;;7.20;4.80;;;;;;;8.83;37.80;100290.50;5052039;28;20412;-38
2022/02/04 09:49:56;;;;;;;7.55;4.55;;;;;;;9.17;37.73;100283.91;5051490;28;20021;-38
2022/02/04 10:06:57;;;;;;;9.45;4.60;;;;;;;9.09;37.61;100273.38;5051803;28;20114;-38
2022/02/04 10:12:06;;;;;;;9.05;4.72;;;;;;;9.60;36.76;100262.88;5051340;28;20049;-38
2022/02/04 10:14:25;;;;;;;9.55;4.95;;;;;;;9.18;38.07;100261.66;5050729;28;20124;-38
2022/02/04 10:17:23;;;;;;;7.30;4.38;;;;;;;9.30;37.42;100267.34;5031643;28;20033;-39
2022/02/04 10:19:49;;;;;;;8.07;4.47;;;;;;;9.41;37.67;100258.13;5048424;28;20037;-39
2022/02/04 10:22:15;;;;;;;10.57;5.38;;;;;;;9.23;37.85;100263.78;5051004;28;20029;-38
2022/02/04 10:24:40;;;;;;;7.43;4.82;;;;;;;9.45;37.09;100260.22;5051097;28;20037;-37
2022/02/04 10:27:13;;;;;;;9.13;4.95;;;;;;;9.40;37.29;100254.63;5051570;28;20106;-38
2022/02/04 10:29:39;;;;;;;9.68;5.00;;;;;;;8.87;38.01;100256.47;5051331;28;20493;-38
2022/02/04 10:32:04;;;;;;;10.02;5.30;;;;;;;8.67;38.88;100253.50;5051576;28;20078;-38
2022/02/04 10:34:31;;;;;;;7.43;4.80;;;;;;;9.17;38.47;100246.72;5051517;28;20032;-38
2022/02/04 10:42:17;;;;;;;7.70;4.88;;;;;;;8.85;38.69;100232.75;5051069;28;20175;-38
2022/02/04 10:53:33;;;;;;;6.55;4.07;;;;;;;9.87;35.69;100215.34;5050643;28;20382;-38
2022/02/04 10:56:15;;;;;;;6.55;3.88;;;;;;;9.19;34.72;100218.16;5050637;28;20044;-38
2022/02/04 11:01:14;;;;;;;7.95;4.07;;;;;;;9.82;35.60;100210.56;5049703;28;20025;-37
2022/02/04 11:03:47;;;;;;;8.35;4.18;;;;;;;9.47;35.86;100201.59;5050630;28;20119;-38
2022/02/04 11:06:31;;;;;;;7.05;3.92;;;;;;;9.52;34.44;100201.84;5050824;28;20024;-38
2022/02/04 11:09:09;;;;;;;6.85;3.97;;;;;;;8.67;35.86;100205.75;5050762;28;20036;-37
2022/02/04 11:35:50;;;;;;;5.85;3.83;;;;;;;9.58;35.43;100175.34;5050731;28;20029;-50
2022/02/04 11:47:55;;;;;;;6.18;3.75;;;;;;;9.81;34.81;100174.41;5049056;28;20068;-48
2022/02/04 11:52:39;;;;;;;7.07;3.70;;;;;;;10.13;32.29;100154.47;5048970;28;20096;-49
2022/02/04 11:55:11;;;;;;;7.05;3.30;;;;;;;10.32;32.99;100150.38;5048307;28;20032;-47
2022/02/04 11:57:38;;;;;;;4.07;3.10;;;;;;;9.91;33.13;100156.28;5050150;28;20025;-50
2022/02/04 12:00:26;;;;;;;5.10;3.28;;;;;;;10.04;32.24;100144.16;5049961;28;20021;-49
2022/02/04 12:02:55;;;;;;;4.28;3.00;;;;;;;10.09;32.20;100128.44;5049171;28;20025;-48
2022/02/04 12:05:20;;;;;;;5.85;3.70;;;;;;;10.08;32.67;100126.81;5046143;28;20107;-50
2022/02/04 12:07:52;;;;;;;4.82;3.40;;;;;;;9.55;33.49;100121.78;5050202;28;20164;-52
2022/02/04 12:10:22;;;;;;;7.35;3.50;;;;;;;10.57;31.84;100116.19;5047595;28;20246;-50
2022/02/04 12:15:29;;;;;;;5.53;3.30;;;;;;;10.05;32.32;100111.22;5047608;28;20059;-50
2022/02/04 12:17:59;;;;;;;4.80;3.00;;;;;;;10.09;31.99;100097.38;5049557;28;20060;-48
2022/02/04 12:23:26;;;;;;;5.55;3.35;;;;;;;10.10;32.17;100100.84;5050706;28;20025;-39
2022/02/04 12:26:00;;;;;;;7.32;3.45;;;;;;;10.26;30.75;100108.56;5052600;28;20052;-38
2022/02/04 12:28:55;;;;;;;4.20;3.08;;;;;;;11.02;30.31;100094.50;5053843;28;20099;-38
2022/02/04 12:31:25;;;;;;;3.97;3.08;;;;;;;11.03;29.88;100098.03;5053941;28;20108;-37
2022/02/04 12:33:54;;;;;;;8.23;4.75;;;;;;;11.05;30.19;100090.66;5053838;28;20017;-38
2022/02/04 12:36:20;;;;;;;4.50;3.22;;;;;;;10.85;29.91;100096.69;5053481;28;20115;-38
2022/02/04 12:38:47;;;;;;;5.28;2.97;;;;;;;10.49;30.64;100099.53;5053325;28;20107;-38
2022/02/04 12:41:25;;;;;;;5.18;3.22;;;;;;;10.26;30.42;100095.25;5053721;28;20048;-38
2022/02/04 12:43:53;;;;;;;4.35;2.92;;;;;;;10.97;30.65;100096.97;5053760;28;20029;-39
2022/02/04 12:46:19;;;;;;;5.43;3.13;;;;;;;11.01;30.46;100092.88;5053887;28;20029;-38
2022/02/04 12:49:04;;;;;;;6.03;3.58;;;;;;;11.03;30.54;100090.84;5053377;28;20028;-38
2022/02/04 12:54:12;;;;;;;6.50;3.60;;;;;;;10.87;31.16;100084.00;5053754;28;20032;-39
2022/02/04 12:56:41;;;;;;;4.97;2.92;;;;;;;10.72;30.84;100080.66;5053457;28;20143;-38
2022/02/04 12:59:25;;;;;;;6.13;3.22;;;;;;;10.45;30.84;100091.13;5053371;28;20023;-38
2022/02/04 13:02:04;;;;;;;4.63;3.20;;;;;;;10.65;30.33;100096.56;5051836;28;20485;-38
2022/02/04 13:10:02;;;;;;;4.57;3.30;;;;;;;10.56;30.74;100095.88;5052915;28;20169;-39
2022/02/04 13:12:28;;;;;;;6.57;4.05;;;;;;;10.63;34.67;100081.81;5053351;28;20033;-39
2022/02/04 13:14:54;;;;;;;4.88;3.20;;;;;;;10.56;30.09;100092.41;5054066;28;20025;-38
2022/02/04 13:17:29;;;;;;;5.40;3.03;;;;;;;9.96;30.63;100094.59;5052246;28;20025;-38
2022/02/04 13:19:56;;;;;;;6.97;3.40;;;;;;;10.59;31.12;100081.38;5053168;28;20425;-37
2022/02/04 13:22:21;;;;;;;5.40;3.20;;;;;;;10.18;32.68;100096.22;5051225;28;20025;-38
2022/02/04 13:25:23;;;;;;;6.22;3.63;;;;;;;10.13;33.34;100093.31;5052539;28;20013;-38
2022/02/04 13:28:11;;;;;;;5.63;3.53;;;;;;;9.71;32.71;100087.00;5050843;28;20488;-38
2022/02/04 13:31:00;;;;;;;6.53;4.00;;;;;;;9.71;33.06;100081.69;5052209;28;20024;-39
2022/02/04 13:33:38;;;;;;;6.13;3.60;;;;;;;10.39;31.92;100083.09;5052598;28;20108;-38
2022/02/04 13:36:41;;;;;;;6.03;4.13;;;;;;;10.19;32.82;100075.75;5051843;28;20029;-39
2022/02/04 13:39:27;;;;;;;8.13;4.22;;;;;;;9.93;32.82;100071.84;5052059;28;20029;-38
2022/02/04 13:44:56;;;;;;;8.05;4.75;;;;;;;9.70;33.59;100063.25;5052562;28;20024;-37
2022/02/04 13:53:31;;;;;;;10.38;6.03;;;;;;;9.93;34.22;100055.09;5050812;28;20151;-37
2022/02/04 13:56:13;;;;;;;10.80;4.67;;;;;;;9.88;33.47;100050.34;5052326;28;20051;-38
2022/02/04 13:58:47;;;;;;;8.98;5.13;;;;;;;9.36;34.60;100067.41;5052163;28;20298;-38
2022/02/04 14:01:26;;;;;;;10.27;4.65;;;;;;;9.51;34.10;100059.41;5052058;28;20074;-38
2022/02/04 14:03:57;;;;;;;9.10;4.78;;;;;;;10.49;33.12;100054.28;5051106;28;20396;-43
2022/02/04 14:06:28;;;;;;;7.57;4.68;;;;;;;10.40;32.33;100061.63;5052237;28;20052;-37
2022/02/04 14:08:59;;;;;;;9.80;4.88;;;;;;;9.99;33.84;100062.28;5052223;28;20029;-40
2022/02/04 14:11:45;;;;;;;9.20;4.85;;;;;;;9.63;34.02;100057.06;5051989;28;20041;-37
2022/02/04 14:14:20;;;;;;;10.30;5.32;;;;;;;9.41;34.38;100057.06;5051402;28;20202;-37
2022/02/04 14:16:52;;;;;;;11.00;5.55;;;;;;;9.33;35.19;100062.50;5051916;28;20028;-38
2022/02/04 14:19:18;;;;;;;11.55;5.75;;;;;;;10.05;34.20;100047.41;5051635;28;20029;-38
2022/02/04 14:21:43;;;;;;;8.38;5.45;;;;;;;9.63;34.64;100043.78;5051538;28;20021;-37
2022/02/04 14:24:11;;;;;;;7.82;5.10;;;;;;;8.92;35.52;100041.78;5051803;28;20032;-37
2022/02/04 14:26:42;;;;;;;9.25;5.20;;;;;;;8.74;36.47;100040.34;5051597;28;20043;-38
2022/02/04 14:29:23;;;;;;;9.27;5.25;;;;;;;8.87;36.09;100038.84;5051309;28;20088;-37
2022/02/04 14:31:59;;;;;;;8.52;4.93;;;;;;;8.58;36.97;100036.00;5050821;28;20075;-37
2022/02/04 15:03:47;;;;;;;12.45;6.80;;;;;;;8.42;36.83;100025.59;5050162;28;20036;-38
2022/02/04 15:06:22;;;;;;;15.52;7.20;;;;;;;8.01;37.05;100021.50;5049879;28;20059;-38
2022/02/04 15:08:49;;;;;;;10.35;5.38;;;;;;;8.13;37.08;100018.41;5050087;28;20493;-38
2022/02/04 15:11:29;;;;;;;12.82;5.43;;;;;;;7.87;38.18;100029.44;5066665;28;20466;-37
2022/02/04 15:13:55;;;;;;;8.77;5.10;;;;;;;7.76;38.46;100028.00;5065302;28;20041;-37
2022/02/04 15:16:21;;;;;;;7.50;4.63;;;;;;;7.69;38.56;100027.06;5066303;28;20016;-37
2022/02/04 15:18:46;;;;;;;7.20;4.25;;;;;;;7.69;38.84;100035.88;5047234;28;20106;-38
2022/02/04 15:21:16;;;;;;;8.52;4.40;;;;;;;7.70;39.55;100034.03;5046869;28;20025;-38
2022/02/04 15:23:42;;;;;;;12.93;6.65;;;;;;;7.68;39.39;100033.38;5046576;28;20254;-38
2022/02/04 15:26:10;;;;;;;15.90;7.57;;;;;;;7.68;39.22;100031.56;5046959;28;20551;-39
2022/02/04 15:29:42;;;;;;;20.45;7.07;;;;;;;7.71;39.99;100028.56;5046648;28;20027;-38
2022/02/04 15:33:57;;;;;;;23.52;10.23;;;;;;;7.49;39.73;100047.91;5046437;28;20361;-38
2022/02/04 15:36:45;;;;;;;14.13;5.75;;;;;;;7.43;39.41;100047.63;5046308;28;20025;-38
2022/02/04 15:39:11;;;;;;;24.30;11.45;;;;;;;7.35;40.08;100052.97;5046015;28;20045;-38
2022/02/04 15:41:38;;;;;;;20.90;9.52;;;;;;;7.26;40.02;100053.19;5046481;28;20026;-37
2022/02/04 15:44:16;;;;;;;30.60;11.88;;;;;;;7.15;40.73;100049.94;5045997;28;20547;-37
2022/02/04 15:46:58;;;;;;;13.30;6.07;;;;;;;7.26;40.26;100050.56;5045891;28;20025;-37
2022/02/04 15:49:54;;;;;;;9.95;4.93;;;;;;;7.21;41.39;100049.22;5045477;28;20532;-37
2022/02/04 16:05:05;;;;;;;14.25;7.75;;;;;;;6.93;43.37;100034.81;5063031;28;20038;-38
2022/02/04 16:07:31;;;;;;;14.57;7.20;;;;;;;6.82;43.67;100051.91;5060655;28;20103;-39
2022/02/04 16:13:06;;;;;;;17.40;8.93;;;;;;;6.76;44.77;100039.34;5055146;28;20479;-38
2022/02/04 16:15:38;;;;;;;14.88;6.80;;;;;;;6.99;44.29;100050.03;5066568;28;20024;-38
2022/02/04 16:18:11;;;;;;;16.92;5.88;;;;;;;6.56;44.80;100042.41;5066836;28;20158;-37
2022/02/04 16:20:58;;;;;;;11.98;6.20;;;;;;;7.29;43.71;100042.25;5065368;28;20078;-39
2022/02/04 16:23:31;;;;;;;12.43;6.20;;;;;;;6.90;44.62;100045.75;5052944;28;20055;-40
2022/02/04 16:26:24;;;;;;;12.52;6.75;;;;;;;6.52;45.64;100051.66;5053180;28;20150;-38
2022/02/04 16:28:45;;;;;;;13.85;7.57;;;;;;;6.51;45.91;100057.97;5048774;28;20158;-38
2022/02/04 16:31:14;;;;;;;20.92;10.30;;;;;;;6.25;46.28;100053.72;5052872;28;20120;-38
2022/02/04 16:33:40;;;;;;;29.38;11.20;;;;;;;6.20;47.38;100066.59;5053492;28;20033;-37
2022/02/04 16:36:12;;;;;;;26.67;11.00;;;;;;;5.99;47.75;100061.00;5053133;28;20029;-38
2022/02/04 16:38:40;;;;;;;27.88;12.07;;;;;;;5.98;47.64;100057.53;5053011;28;20465;-38
2022/02/04 16:41:08;;;;;;;22.10;9.43;;;;;;;5.87;47.48;100056.00;5052535;28;20481;-37
2022/02/04 16:43:35;;;;;;;18.77;10.23;;;;;;;5.82;47.71;100050.41;5051206;28;20366;-38
2022/02/04 16:46:02;;;;;;;13.65;8.02;;;;;;;5.72;47.95;100054.22;5052474;28;20029;-37
2022/02/04 16:48:28;;;;;;;15.25;8.13;;;;;;;5.59;48.34;100050.22;5037296;28;20103;-40
2022/02/04 16:50:54;;;;;;;17.08;7.28;;;;;;;5.64;48.18;100058.47;5051208;28;20052;-38
2022/02/04 16:53:19;;;;;;;20.02;8.60;;;;;;;5.65;47.82;100060.16;5052498;28;20047;-38
2022/02/04 16:55:45;;;;;;;18.55;8.13;;;;;;;5.61;48.17;100048.25;5051134;28;20028;-38
2022/02/04 16:58:10;;;;;;;14.02;7.95;;;;;;;5.55;48.39;100058.63;5052345;28;20346;-38
2022/02/04 17:00:36;;;;;;;18.27;8.77;;;;;;;5.59;48.09;100058.13;5052152;28;20032;-39
2022/02/04 17:03:07;;;;;;;15.30;7.90;;;;;;;5.64;48.36;100044.47;5052200;28;20037;-37
2022/02/04 17:05:40;;;;;;;15.07;7.97;;;;;;;5.51;48.38;100044.94;5052675;28;20033;-39
2022/02/04 17:08:08;;;;;;;15.93;7.65;;;;;;;5.55;48.38;100040.97;5052029;28;20481;-38
2022/02/04 17:10:35;;;;;;;17.27;7.75;;;;;;;5.28;49.17;100045.56;5051763;28;20049;-39
2022/02/04 17:13:01;;;;;;;15.32;8.20;;;;;;;5.06;49.78;100046.16;5052069;28;20032;-37
2022/02/04 17:15:31;;;;;;;17.90;8.80;;;;;;;5.07;50.12;100045.19;5051921;28;20024;-37
2022/02/04 17:17:58;;;;;;;21.58;9.00;;;;;;;5.07;50.14;100043.34;5036379;28;20025;-52
2022/02/04 17:20:24;;;;;;;15.18;8.77;;;;;;;5.13;50.70;100051.63;5031474;28;20489;-49
2022/02/04 17:22:50;;;;;;;16.58;8.57;;;;;;;5.00;51.22;100041.53;5031883;28;20029;-38
2022/02/04 17:25:16;;;;;;;25.25;9.85;;;;;;;4.94;52.04;100050.06;5032095;28;20108;-38
2022/02/04 17:27:43;;;;;;;16.42;9.05;;;;;;;6.63;58.65;100047.84;5031834;28;20033;-39
2022/02/04 17:30:11;;;;;;;24.42;10.65;;;;;;;6.09;49.43;100043.16;5032082;28;20021;-37
2022/02/04 17:32:39;;;;;;;20.17;9.43;;;;;;;5.81;49.77;100050.59;5030499;28;20091;-37
2022/02/04 17:35:05;;;;;;;53.63;28.88;;;;;;;5.49;51.25;100044.28;5031209;28;20029;-37
2022/02/04 17:37:31;;;;;;;40.72;19.02;;;;;;;5.17;52.03;100050.31;5031450;28;20025;-37
2022/02/04 17:39:57;;;;;;;27.63;11.68;;;;;;;4.97;52.92;100050.59;5031893;28;20029;-38
2022/02/04 17:42:24;;;;;;;28.38;15.40;;;;;;;4.85;53.14;100043.94;5031471;28;20591;-38
2022/02/04 17:44:50;;;;;;;30.55;15.25;;;;;;;5.11;52.96;100049.16;5031306;28;20029;-38